createdAt,value
2023-03-28T00:01:03.521Z,98209.66
2023-03-28T00:03:35.356Z,98208.22
2023-03-28T00:06:05.535Z,98219.63
2023-03-28T00:08:32.768Z,98210.22
2023-03-28T00:11:21.597Z,98218.00
2023-03-28T00:14:00.832Z,98218.00
2023-03-28T00:16:37.559Z,98220.69
2023-03-28T00:19:14.424Z,98222.44
2023-03-28T00:21:46.834Z,98216.47
2023-03-28T00:24:17.404Z,98227.75
2023-03-28T00:26:45.454Z,98233.72
2023-03-28T00:29:20.789Z,98232.94
2023-03-28T00:31:49.740Z,98237.28
2023-03-28T00:34:17.422Z,98242.47
2023-03-28T00:36:44.362Z,98244.19
2023-03-28T00:39:11.496Z,98248.53
2023-03-28T00:41:42.587Z,98253.66
2023-03-28T00:44:53.492Z,98247.72
2023-03-28T00:47:26.334Z,98253.75
2023-03-28T00:50:00.150Z,98257.19
2023-03-28T00:52:30.246Z,98256.53
2023-03-28T00:54:59.435Z,98256.66
2023-03-28T00:57:28.552Z,98266.06
2023-03-28T00:59:55.891Z,98253.41
2023-03-28T01:02:22.876Z,98259.38
2023-03-28T01:05:00.760Z,98274.75
2023-03-28T01:07:35.161Z,98256.03
2023-03-28T01:10:05.064Z,98266.28
2023-03-28T01:12:33.102Z,98255.25
2023-03-28T01:15:02.989Z,98256.09
2023-03-28T01:17:30.735Z,98273.19
2023-03-28T01:20:35.860Z,98269.75
2023-03-28T01:23:46.581Z,98279.88
2023-03-28T01:26:47.205Z,98280.88
2023-03-28T01:29:38.666Z,98278.41
2023-03-28T01:32:43.286Z,98276.75
2023-03-28T01:35:53.092Z,98276.75
2023-03-28T01:38:34.851Z,98281.06
2023-03-28T01:41:19.703Z,98285.28
2023-03-28T01:44:18.956Z,98281.13
2023-03-28T01:47:21.542Z,98282.06
2023-03-28T01:50:25.172Z,98282.06
2023-03-28T01:53:24.012Z,98291.53
2023-03-28T01:56:10.267Z,98299.09
2023-03-28T01:59:02.497Z,98288.75
2023-03-28T02:01:45.081Z,98299.00
2023-03-28T02:04:21.440Z,98295.69
2023-03-28T02:06:51.506Z,98288.97
2023-03-28T02:09:24.919Z,98294.09
2023-03-28T02:12:03.732Z,98294.19
2023-03-28T02:14:39.788Z,98292.47
2023-03-28T02:17:15.651Z,98297.63
2023-03-28T02:20:08.777Z,98299.38
2023-03-28T02:22:45.987Z,98291.75
2023-03-28T02:25:13.178Z,98297.03
2023-03-28T02:27:44.555Z,98300.38
2023-03-28T02:30:12.439Z,98294.47
2023-03-28T02:32:40.289Z,98309.84
2023-03-28T02:35:08.977Z,98304.72
2023-03-28T02:37:54.780Z,98293.53
2023-03-28T02:40:52.338Z,98308.06
2023-03-28T02:43:45.064Z,98308.00
2023-03-28T02:46:29.911Z,98310.47
2023-03-28T02:49:49.609Z,98307.97
2023-03-28T02:52:52.116Z,98309.69
2023-03-28T02:55:59.179Z,98325.00
2023-03-28T02:58:55.812Z,98317.25
2023-03-28T03:01:29.820Z,98316.41
2023-03-28T03:04:00.577Z,98328.38
2023-03-28T03:06:27.367Z,98329.22
2023-03-28T03:08:54.111Z,98325.00
2023-03-28T03:11:21.309Z,98331.06
2023-03-28T03:13:48.112Z,98326.78
2023-03-28T03:16:14.882Z,98337.13
2023-03-28T03:18:41.797Z,98332.16
2023-03-28T03:21:08.791Z,98332.28
2023-03-28T03:23:36.612Z,98332.38
2023-03-28T03:26:03.615Z,98337.31
2023-03-28T03:28:30.872Z,98339.78
2023-03-28T03:30:57.639Z,98341.50
2023-03-28T03:33:24.452Z,98339.97
2023-03-28T03:35:51.237Z,98342.63
2023-03-28T03:38:17.998Z,98343.59
2023-03-28T03:40:44.716Z,98351.28
2023-03-28T03:43:11.418Z,98352.13
2023-03-28T03:45:40.501Z,98350.50
2023-03-28T03:48:07.349Z,98354.75
2023-03-28T03:50:34.283Z,98358.09
2023-03-28T03:53:00.990Z,98358.09
2023-03-28T03:55:27.728Z,98359.06
2023-03-28T03:57:54.530Z,98364.25
2023-03-28T04:00:21.536Z,98360.91
2023-03-28T04:02:48.924Z,98360.13
2023-03-28T04:05:15.999Z,98362.72
2023-03-28T04:07:42.897Z,98364.56
2023-03-28T04:10:10.222Z,98364.66
2023-03-28T04:12:36.938Z,98367.19
2023-03-28T04:15:06.007Z,98360.44
2023-03-28T04:17:35.144Z,98364.81
2023-03-28T04:20:13.378Z,98354.66
2023-03-28T04:22:45.504Z,98359.78
2023-03-28T04:25:13.810Z,98364.91
2023-03-28T04:27:46.207Z,98366.69
2023-03-28T04:30:15.325Z,98376.88
2023-03-28T04:32:42.132Z,98375.22
2023-03-28T04:35:09.190Z,98373.53
2023-03-28T04:37:37.697Z,98375.25
2023-03-28T04:40:11.806Z,98386.34
2023-03-28T04:42:39.364Z,98379.63
2023-03-28T04:45:08.249Z,98379.63
2023-03-28T04:47:37.448Z,98388.09
2023-03-28T04:50:04.646Z,98388.09
2023-03-28T04:52:31.357Z,98388.09
2023-03-28T04:54:58.109Z,98394.00
2023-03-28T04:57:24.850Z,98399.22
2023-03-28T04:59:52.104Z,98395.03
2023-03-28T05:02:18.867Z,98407.84
2023-03-28T05:04:45.627Z,98400.25
2023-03-28T05:07:12.411Z,98416.50
2023-03-28T05:09:39.147Z,98407.25
2023-03-28T05:12:06.222Z,98402.22
2023-03-28T05:14:33.352Z,98403.19
2023-03-28T05:17:00.168Z,98412.59
2023-03-28T05:19:26.997Z,98413.41
2023-03-28T05:21:54.288Z,98414.22
2023-03-28T05:24:21.085Z,98422.53
2023-03-28T05:26:47.782Z,98423.19
2023-03-28T05:29:14.618Z,98424.69
2023-03-28T05:31:41.462Z,98427.03
2023-03-28T05:34:08.344Z,98422.59
2023-03-28T05:36:35.070Z,98424.19
2023-03-28T05:39:01.900Z,98419.91
2023-03-28T05:41:28.718Z,98436.84
2023-03-28T05:43:55.575Z,98431.63
2023-03-28T05:46:22.332Z,98445.88
2023-03-28T05:48:49.510Z,98444.78
2023-03-28T05:51:16.989Z,98442.00
2023-03-28T05:53:43.881Z,98447.00
2023-03-28T05:56:10.872Z,98450.34
2023-03-28T05:58:37.633Z,98457.84
2023-03-28T06:01:05.541Z,98455.09
2023-03-28T06:03:32.491Z,98461.75
2023-03-28T06:05:59.971Z,98459.16
2023-03-28T06:08:27.383Z,98479.53
2023-03-28T06:10:54.298Z,98471.53
2023-03-28T06:13:21.346Z,98473.78
2023-03-28T06:15:48.190Z,98467.59
2023-03-28T06:18:14.977Z,98477.66
2023-03-28T06:20:41.715Z,98485.06
2023-03-28T06:23:08.439Z,98495.22
2023-03-28T06:25:35.211Z,98489.13
2023-03-28T06:28:01.997Z,98488.22
2023-03-28T06:30:28.812Z,98494.94
2023-03-28T06:32:55.631Z,98500.66
2023-03-28T06:35:22.509Z,98494.31
2023-03-28T06:37:49.231Z,98488.78
2023-03-28T06:40:16.110Z,98494.41
2023-03-28T06:42:43.207Z,98495.78
2023-03-28T06:45:10.631Z,98497.16
2023-03-28T06:47:40.666Z,98497.78
2023-03-28T06:50:07.895Z,98497.28
2023-03-28T06:52:34.840Z,98500.22
2023-03-28T06:55:01.632Z,98509.63
2023-03-28T06:57:28.360Z,98518.44
2023-03-28T06:59:55.190Z,98520.81
2023-03-28T07:02:21.948Z,98510.03
2023-03-28T07:04:48.847Z,98519.13
2023-03-28T07:07:15.609Z,98517.09
2023-03-28T07:09:42.365Z,98528.34
2023-03-28T07:12:09.112Z,98526.31
2023-03-28T07:14:36.076Z,98526.00
2023-03-28T07:17:02.970Z,98528.91
2023-03-28T07:19:29.938Z,98535.25
2023-03-28T07:21:56.737Z,98531.81
2023-03-28T07:24:23.488Z,98536.06
2023-03-28T07:26:51.173Z,98532.44
2023-03-28T07:29:18.754Z,98536.03
2023-03-28T07:31:45.688Z,98546.03
2023-03-28T07:34:12.468Z,98537.03
2023-03-28T07:36:39.629Z,98542.28
2023-03-28T07:39:06.386Z,98548.16
2023-03-28T07:41:33.114Z,98564.31
2023-03-28T07:44:00.200Z,98561.03
2023-03-28T07:46:27.169Z,98561.38
2023-03-28T07:48:56.092Z,98561.38
2023-03-28T07:51:22.879Z,98572.03
2023-03-28T07:53:49.707Z,98575.44
2023-03-28T07:56:16.483Z,98582.88
2023-03-28T07:58:43.217Z,98569.22
2023-03-28T08:01:12.645Z,98566.44
2023-03-28T08:03:41.533Z,98576.66
2023-03-28T08:06:20.659Z,98579.56
2023-03-28T08:08:55.876Z,98588.31
2023-03-28T08:11:22.870Z,98585.88
2023-03-28T08:13:49.611Z,98590.81
2023-03-28T08:16:16.344Z,98598.22
2023-03-28T08:18:43.136Z,98594.81
2023-03-28T08:21:10.146Z,98597.38
2023-03-28T08:23:36.873Z,98593.53
2023-03-28T08:26:06.214Z,98599.88
2023-03-28T08:28:35.842Z,98600.16
2023-03-28T08:31:09.948Z,98601.63
2023-03-28T08:33:36.915Z,98596.66
2023-03-28T08:36:03.972Z,98603.06
2023-03-28T08:38:33.503Z,98588.22
2023-03-28T08:41:28.264Z,98596.38
2023-03-28T08:44:27.519Z,98588.28
2023-03-28T08:47:06.018Z,98587.88
2023-03-28T08:49:44.727Z,98598.09
2023-03-28T08:52:15.891Z,98596.91
2023-03-28T08:54:58.613Z,98595.47
2023-03-28T08:57:29.733Z,98591.91
2023-03-28T09:00:17.133Z,98590.09
2023-03-28T09:02:44.787Z,98595.75
2023-03-28T09:05:23.667Z,98595.09
2023-03-28T09:08:00.967Z,98587.69
2023-03-28T09:11:08.487Z,98593.50
2023-03-28T09:13:41.831Z,98606.88
2023-03-28T09:16:39.485Z,98590.91
2023-03-28T09:19:47.835Z,98594.84
2023-03-28T09:22:39.116Z,98588.91
2023-03-28T09:25:12.451Z,98603.38
2023-03-28T09:27:59.725Z,98602.63
2023-03-28T09:30:32.464Z,98599.72
2023-03-28T09:33:03.075Z,98605.66
2023-03-28T09:35:32.153Z,98617.09
2023-03-28T09:38:21.646Z,98611.56
2023-03-28T09:40:52.876Z,98615.50
2023-03-28T09:43:40.485Z,98612.06
2023-03-28T09:46:14.814Z,98614.91
2023-03-28T09:48:42.088Z,98613.44
2023-03-28T09:51:16.742Z,98619.09
2023-03-28T09:53:43.870Z,98614.31
2023-03-28T09:56:22.178Z,98617.03
2023-03-28T09:58:52.326Z,98610.75
2023-03-28T10:01:41.930Z,98612.16
2023-03-28T10:04:16.693Z,98606.91
2023-03-28T10:06:45.303Z,98618.78
2023-03-28T10:09:21.793Z,98611.88
2023-03-28T10:12:00.858Z,98619.41
2023-03-28T10:14:39.292Z,98608.41
2023-03-28T10:17:28.170Z,98620.94
2023-03-28T10:20:01.809Z,98595.63
2023-03-28T10:22:33.670Z,98600.13
2023-03-28T10:25:04.036Z,98605.66
2023-03-28T10:27:32.786Z,98609.31
2023-03-28T10:30:16.671Z,98600.66
2023-03-28T10:32:43.816Z,98597.00
2023-03-28T10:35:27.680Z,98603.53
2023-03-28T10:37:55.542Z,98601.09
2023-03-28T10:40:24.651Z,98613.41
2023-03-28T10:42:52.226Z,98594.75
2023-03-28T10:45:37.257Z,98601.91
2023-03-28T10:48:15.993Z,98607.16
2023-03-28T10:50:52.409Z,98598.50
2023-03-28T10:53:51.224Z,98606.44
2023-03-28T10:56:41.434Z,98617.22
2023-03-28T10:59:32.650Z,98615.75
2023-03-28T11:02:17.857Z,98612.84
2023-03-28T11:04:50.784Z,98625.16
2023-03-28T11:07:21.526Z,98619.59
2023-03-28T11:10:00.743Z,98612.16
2023-03-28T11:12:54.223Z,98618.75
2023-03-28T11:15:33.877Z,98623.72
2023-03-28T11:18:15.153Z,98616.09
2023-03-28T11:21:09.461Z,98610.41
2023-03-28T11:23:53.607Z,98610.44
2023-03-28T11:26:31.797Z,98611.78
2023-03-28T11:29:18.379Z,98611.91
2023-03-28T11:32:23.420Z,98599.91
2023-03-28T11:35:05.478Z,98606.31
2023-03-28T11:37:42.067Z,98601.28
2023-03-28T11:40:23.067Z,98604.63
2023-03-28T11:42:55.969Z,98604.16
2023-03-28T11:45:42.006Z,98594.56
2023-03-28T11:48:26.306Z,98588.94
2023-03-28T11:51:04.424Z,98582.75
2023-03-28T11:53:40.543Z,98581.59
2023-03-28T11:56:53.284Z,98578.19
2023-03-28T11:59:42.896Z,98568.28
2023-03-28T12:02:31.288Z,98570.16
2023-03-28T12:05:07.172Z,98556.88
2023-03-28T12:07:57.904Z,98562.75
2023-03-28T12:10:37.888Z,98560.91
2023-03-28T12:13:45.499Z,98558.25
2023-03-28T12:16:38.648Z,98545.13
2023-03-28T12:19:14.804Z,98546.25
2023-03-28T12:21:46.934Z,98540.88
2023-03-28T12:24:43.080Z,98549.28
2023-03-28T12:27:30.328Z,98540.88
2023-03-28T12:30:20.546Z,98544.00
2023-03-28T12:33:04.457Z,98548.38
2023-03-28T12:35:52.719Z,98543.47
2023-03-28T12:38:29.260Z,98538.28
2023-03-28T12:41:04.003Z,98536.16
2023-03-28T12:44:04.109Z,98534.63
2023-03-28T12:46:45.960Z,98524.28
2023-03-28T12:49:45.437Z,98534.91
2023-03-28T12:52:28.236Z,98529.44
2023-03-28T12:55:02.186Z,98524.25
2023-03-28T12:57:46.052Z,98532.88
2023-03-28T13:00:25.549Z,98521.38
2023-03-28T13:03:07.977Z,98530.16
2023-03-28T13:06:04.045Z,98530.28
2023-03-28T13:08:50.313Z,98524.28
2023-03-28T13:11:51.685Z,98529.25
2023-03-28T13:14:36.360Z,98523.97
2023-03-28T13:17:21.679Z,98513.81
2023-03-28T13:20:15.944Z,98517.78
2023-03-28T13:22:49.288Z,98514.59
2023-03-28T13:25:26.653Z,98509.88
2023-03-28T13:28:01.007Z,98495.16
2023-03-28T13:30:32.697Z,98510.56
2023-03-28T13:33:19.123Z,98509.00
2023-03-28T13:36:12.882Z,98496.81
2023-03-28T13:38:58.287Z,98492.94
2023-03-28T13:41:55.102Z,98485.75
2023-03-28T13:44:38.726Z,98485.66
2023-03-28T13:47:06.089Z,98477.31
2023-03-28T13:49:44.687Z,98469.78
2023-03-28T13:52:25.511Z,98464.78
2023-03-28T13:55:00.601Z,98471.00
2023-03-28T13:57:28.696Z,98461.41
2023-03-28T14:00:06.811Z,98480.66
2023-03-28T14:02:41.337Z,98460.84
2023-03-28T14:05:33.873Z,98462.38
2023-03-28T14:08:15.925Z,98465.22
2023-03-28T14:10:46.104Z,98467.56
2023-03-28T14:13:24.400Z,98456.06
2023-03-28T14:15:53.554Z,98461.06
2023-03-28T14:18:36.423Z,98456.56
2023-03-28T14:21:06.531Z,98451.06
2023-03-28T14:23:48.159Z,98466.63
2023-03-28T14:26:23.411Z,98454.66
2023-03-28T14:28:51.949Z,98454.09
2023-03-28T14:31:45.961Z,98426.34
2023-03-28T14:34:32.087Z,98444.78
2023-03-28T14:37:17.888Z,98434.03
2023-03-28T14:39:47.234Z,98423.56
2023-03-28T14:42:17.864Z,98435.22
2023-03-28T14:44:51.838Z,98439.44
2023-03-28T14:47:32.025Z,98432.16
2023-03-28T14:50:01.333Z,98421.75
2023-03-28T14:52:40.946Z,98425.38
2023-03-28T14:55:16.492Z,98424.94
2023-03-28T14:57:45.683Z,98429.50
2023-03-28T15:00:22.075Z,98426.72
2023-03-28T15:02:51.458Z,98411.59
2023-03-28T15:05:22.116Z,98413.09
2023-03-28T15:08:02.091Z,98420.06
2023-03-28T15:10:30.011Z,98416.56
2023-03-28T15:13:16.927Z,98409.13
2023-03-28T15:15:47.801Z,98405.34
2023-03-28T15:18:18.381Z,98397.56
2023-03-28T15:20:51.938Z,98397.00
2023-03-28T15:23:56.446Z,98389.72
2023-03-28T15:26:54.842Z,98385.44
2023-03-28T15:29:25.183Z,98382.16
2023-03-28T15:32:02.821Z,98382.84
2023-03-28T15:34:29.838Z,98375.72
2023-03-28T15:37:06.790Z,98373.22
2023-03-28T15:39:36.928Z,98362.28
2023-03-28T15:42:18.974Z,98365.25
2023-03-28T15:45:24.636Z,98355.97
2023-03-28T15:47:55.701Z,98355.44
2023-03-28T15:50:35.199Z,98353.19
2023-03-28T15:53:14.432Z,98357.69
2023-03-28T15:55:42.872Z,98345.63
2023-03-28T15:58:20.857Z,98349.72
2023-03-28T16:00:54.067Z,98348.44
2023-03-28T16:03:21.145Z,98345.94
2023-03-28T16:06:09.862Z,98355.44
2023-03-28T16:08:45.416Z,98356.75
2023-03-28T16:11:23.205Z,98348.03
2023-03-28T16:13:51.035Z,98345.00
2023-03-28T16:16:28.347Z,98346.16
2023-03-28T16:18:55.644Z,98340.22
2023-03-28T16:21:22.356Z,98348.97
2023-03-28T16:23:49.084Z,98341.06
2023-03-28T16:26:16.133Z,98332.59
2023-03-28T16:28:42.861Z,98333.47
2023-03-28T16:31:14.955Z,98331.59
2023-03-28T16:33:41.769Z,98333.50
2023-03-28T16:36:12.136Z,98326.66
2023-03-28T16:38:41.176Z,98329.59
2023-03-28T16:41:08.839Z,98327.63
2023-03-28T16:43:37.018Z,98315.75
2023-03-28T16:46:04.519Z,98333.81
2023-03-28T16:48:32.307Z,98330.41
2023-03-28T16:51:04.702Z,98336.66
2023-03-28T16:53:33.626Z,98336.47
2023-03-28T16:56:01.001Z,98332.91
2023-03-28T16:58:29.790Z,98334.38
2023-03-28T17:00:56.843Z,98333.19
2023-03-28T17:03:24.349Z,98332.94
2023-03-28T17:05:51.376Z,98333.34
2023-03-28T17:08:18.102Z,98331.00
2023-03-28T17:10:44.872Z,98325.09
2023-03-28T17:13:11.615Z,98334.81
2023-03-28T17:15:38.341Z,98329.47
2023-03-28T17:18:05.668Z,98329.72
2023-03-28T17:20:32.848Z,98323.88
2023-03-28T17:22:59.702Z,98309.97
2023-03-28T17:25:26.803Z,98305.31
2023-03-28T17:27:53.572Z,98298.13
2023-03-28T17:30:20.846Z,98305.69
2023-03-28T17:32:47.729Z,98298.28
2023-03-28T17:35:14.723Z,98292.88
2023-03-28T17:37:41.689Z,98294.22
2023-03-28T17:40:10.442Z,98295.44
2023-03-28T17:42:37.249Z,98296.88
2023-03-28T17:45:04.596Z,98294.78
2023-03-28T17:47:31.393Z,98290.13
2023-03-28T17:50:00.277Z,98294.50
2023-03-28T17:52:32.045Z,98284.88
2023-03-28T17:54:59.137Z,98287.16
2023-03-28T17:57:27.423Z,98285.41
2023-03-28T17:59:54.598Z,98293.91
2023-03-28T18:02:21.589Z,98292.84
2023-03-28T18:04:48.621Z,98289.94
2023-03-28T18:07:17.666Z,98284.56
2023-03-28T18:09:45.619Z,98284.44
2023-03-28T18:12:13.230Z,98278.25
2023-03-28T18:14:40.271Z,98274.44
2023-03-28T18:17:07.096Z,98268.91
2023-03-28T18:19:33.846Z,98273.63
2023-03-28T18:22:00.644Z,98267.94
2023-03-28T18:24:27.968Z,98263.94
2023-03-28T18:26:55.571Z,98268.59
2023-03-28T18:29:22.285Z,98269.78
2023-03-28T18:31:49.572Z,98265.84
2023-03-28T18:34:16.340Z,98261.19
2023-03-28T18:36:43.726Z,98263.53
2023-03-28T18:39:10.595Z,98267.47
2023-03-28T18:41:37.974Z,98266.09
2023-03-28T18:44:05.232Z,98258.72
2023-03-28T18:46:32.236Z,98267.59
2023-03-28T18:49:00.205Z,98263.59
2023-03-28T18:51:27.846Z,98268.97
2023-03-28T18:53:54.916Z,98274.63
2023-03-28T18:56:21.918Z,98261.31
2023-03-28T18:58:50.687Z,98271.84
2023-03-28T19:01:18.726Z,98271.09
2023-03-28T19:03:47.051Z,98264.44
2023-03-28T19:06:15.758Z,98265.56
2023-03-28T19:08:44.523Z,98270.66
2023-03-28T19:11:14.641Z,98266.47
2023-03-28T19:13:42.613Z,98270.09
2023-03-28T19:16:15.426Z,98267.66
2023-03-28T19:18:45.175Z,98259.00
2023-03-28T19:21:13.318Z,98258.19
2023-03-28T19:23:41.073Z,98260.81
2023-03-28T19:26:10.901Z,98256.66
2023-03-28T19:28:39.004Z,98262.72
2023-03-28T19:31:10.628Z,98249.25
2023-03-28T19:33:38.513Z,98252.13
2023-03-28T19:36:06.943Z,98243.63
2023-03-28T19:38:36.009Z,98240.38
2023-03-28T19:41:09.670Z,98238.97
2023-03-28T19:43:37.556Z,98229.78
2023-03-28T19:46:08.480Z,98228.22
2023-03-28T19:48:35.877Z,98236.09
2023-03-28T19:51:03.294Z,98236.09
2023-03-28T19:53:30.190Z,98231.78
2023-03-28T19:55:59.820Z,98228.50
2023-03-28T19:58:28.364Z,98229.50
2023-03-28T20:00:56.682Z,98230.44
2023-03-28T20:03:23.395Z,98231.47
2023-03-28T20:05:50.530Z,98225.63
2023-03-28T20:08:18.835Z,98234.25
2023-03-28T20:10:50.363Z,98230.84
2023-03-28T20:13:17.729Z,98219.72
2023-03-28T20:15:46.955Z,98217.84
2023-03-28T20:18:21.147Z,98216.09
2023-03-28T20:20:55.490Z,98218.59
2023-03-28T20:23:25.802Z,98208.31
2023-03-28T20:25:53.937Z,98199.81
2023-03-28T20:28:24.467Z,98198.03
2023-03-28T20:30:53.761Z,98203.94
2023-03-28T20:33:21.014Z,98205.66
2023-03-28T20:35:57.310Z,98199.81
2023-03-28T20:38:27.734Z,98212.06
2023-03-28T20:40:54.477Z,98196.75
2023-03-28T20:43:21.386Z,98194.94
2023-03-28T20:45:53.817Z,98200.91
2023-03-28T20:48:34.142Z,98181.25
2023-03-28T20:51:05.971Z,98181.06
2023-03-28T20:53:33.566Z,98180.09
2023-03-28T20:56:03.859Z,98183.50
2023-03-28T20:58:32.560Z,98176.59
2023-03-28T21:01:02.148Z,98174.03
2023-03-28T21:03:46.476Z,98156.94
2023-03-28T21:06:26.380Z,98162.91
2023-03-28T21:08:55.874Z,98160.34
2023-03-28T21:11:26.313Z,98152.56
2023-03-28T21:13:53.681Z,98149.84
2023-03-28T21:16:21.575Z,98137.94
2023-03-28T21:18:49.383Z,98139.53
2023-03-28T21:21:18.627Z,98146.31
2023-03-28T21:23:46.916Z,98142.69
2023-03-28T21:26:21.218Z,98150.41
2023-03-28T21:28:48.887Z,98144.34
2023-03-28T21:31:24.601Z,98134.75
2023-03-28T21:33:53.818Z,98133.69
2023-03-28T21:36:20.952Z,98134.50
2023-03-28T21:38:48.588Z,98140.31
2023-03-28T21:41:16.554Z,98124.59
2023-03-28T21:43:44.270Z,98129.53
2023-03-28T21:46:12.576Z,98135.22
2023-03-28T21:48:39.421Z,98123.91
2023-03-28T21:51:06.674Z,98126.19
2023-03-28T21:53:37.264Z,98120.88
2023-03-28T21:56:06.472Z,98118.09
2023-03-28T21:58:33.797Z,98113.91
2023-03-28T22:01:02.821Z,98109.56
2023-03-28T22:03:30.800Z,98106.91
2023-03-28T22:05:57.804Z,98101.75
2023-03-28T22:08:24.761Z,98101.59
2023-03-28T22:10:55.584Z,98106.66
2023-03-28T22:13:23.652Z,98109.31
2023-03-28T22:15:52.354Z,98093.88
2023-03-28T22:18:19.726Z,98098.03
2023-03-28T22:20:52.941Z,98094.63
2023-03-28T22:23:22.340Z,98095.47
2023-03-28T22:25:49.645Z,98083.34
2023-03-28T22:28:18.481Z,98085.00
2023-03-28T22:30:45.497Z,98079.72
2023-03-28T22:33:13.359Z,98082.16
2023-03-28T22:35:40.507Z,98081.16
2023-03-28T22:38:07.821Z,98087.91
2023-03-28T22:40:34.898Z,98093.06
2023-03-28T22:43:02.988Z,98087.22
2023-03-28T22:45:29.967Z,98081.41
2023-03-28T22:48:02.988Z,98079.66
2023-03-28T22:50:30.165Z,98079.56
2023-03-28T22:52:57.032Z,98076.91
2023-03-28T22:55:24.489Z,98080.16
2023-03-28T22:57:52.825Z,98087.75
2023-03-28T23:00:22.973Z,98079.19
2023-03-28T23:02:51.738Z,98087.63
2023-03-28T23:05:20.162Z,98093.81
2023-03-28T23:07:47.309Z,98092.28
2023-03-28T23:10:19.004Z,98093.38
2023-03-28T23:12:47.360Z,98093.38
2023-03-28T23:15:15.022Z,98092.28
2023-03-28T23:17:42.648Z,98095.72
2023-03-28T23:20:14.518Z,98099.94
2023-03-28T23:22:44.502Z,98095.63
2023-03-28T23:25:14.646Z,98096.38
2023-03-28T23:27:42.899Z,98098.00
2023-03-28T23:30:12.288Z,98099.50
2023-03-28T23:32:39.280Z,98095.19
2023-03-28T23:35:07.373Z,98097.69
2023-03-28T23:37:37.995Z,98104.59
2023-03-28T23:40:06.276Z,98103.81
2023-03-28T23:42:32.995Z,98090.31
2023-03-28T23:44:59.687Z,98088.66
2023-03-28T23:47:26.419Z,98088.56
2023-03-28T23:49:53.185Z,98083.31
2023-03-28T23:52:20.419Z,98079.13
2023-03-28T23:54:47.464Z,98080.81
2023-03-28T23:57:14.251Z,98093.53
2023-03-28T23:59:41.034Z,98088.28
